createdAt,value
2018-05-25T00:00:54.499Z,7.47
2018-05-25T00:03:57.611Z,6.77
2018-05-25T00:06:59.649Z,6.83
2018-05-25T00:10:01.730Z,6.63
2018-05-25T00:13:03.806Z,6.90
2018-05-25T00:16:05.891Z,7.37
2018-05-25T00:19:07.924Z,7.20
2018-05-25T00:22:11.212Z,7.77
2018-05-25T00:25:13.302Z,6.67
2018-05-25T00:28:15.480Z,6.90
2018-05-25T00:31:17.566Z,7.23
2018-05-25T00:34:19.642Z,8.30
2018-05-25T00:37:34.660Z,7.47
2018-05-25T00:40:36.751Z,6.33
2018-05-25T00:43:39.752Z,6.73
2018-05-25T00:46:41.899Z,6.77
2018-05-25T00:49:43.970Z,6.40
2018-05-25T00:52:46.056Z,9.47
2018-05-25T00:55:48.023Z,7.03
2018-05-25T00:58:50.499Z,8.27
2018-05-25T01:01:52.592Z,7.20
2018-05-25T01:04:54.752Z,6.70
2018-05-25T01:08:04.537Z,6.63
2018-05-25T01:11:06.672Z,6.90
2018-05-25T01:14:09.835Z,7.43
2018-05-25T01:17:11.925Z,7.23
2018-05-25T01:20:14.099Z,9.63
2018-05-25T01:23:16.196Z,8.20
2018-05-25T01:26:18.383Z,7.87
2018-05-25T01:29:20.507Z,8.37
2018-05-25T01:32:22.810Z,8.30
2018-05-25T01:35:24.827Z,7.07
2018-05-25T01:38:26.952Z,7.53
2018-05-25T01:41:29.076Z,8.33
2018-05-25T01:44:31.374Z,10.60
2018-05-25T01:47:33.546Z,8.33
2018-05-25T01:50:35.719Z,9.07
2018-05-25T01:53:37.883Z,7.57
2018-05-25T01:56:40.971Z,8.07
2018-05-25T01:59:43.061Z,8.00
2018-05-25T02:02:45.188Z,7.47
2018-05-25T02:05:47.290Z,8.37
2018-05-25T02:08:49.234Z,9.77
2018-05-25T02:11:52.344Z,10.53
2018-05-25T02:14:54.416Z,8.03
2018-05-25T02:17:58.523Z,9.20
2018-05-25T02:21:00.595Z,8.20
2018-05-25T02:24:02.679Z,8.47
2018-05-25T02:27:04.849Z,8.77
2018-05-25T02:30:07.101Z,10.60
2018-05-25T02:33:10.292Z,9.50
2018-05-25T02:36:13.425Z,8.63
2018-05-25T02:39:15.473Z,8.83
2018-05-25T02:42:23.157Z,7.73
2018-05-25T02:45:25.238Z,9.47
2018-05-25T02:48:27.292Z,9.20
2018-05-25T02:51:41.552Z,9.70
2018-05-25T02:54:43.517Z,8.20
2018-05-25T02:57:45.563Z,9.33
2018-05-25T03:00:47.666Z,7.37
2018-05-25T03:03:49.719Z,7.77
2018-05-25T03:06:51.800Z,8.80
2018-05-25T03:09:53.955Z,8.80
2018-05-25T03:12:56.072Z,8.90
2018-05-25T03:15:58.094Z,8.70
2018-05-25T03:19:01.274Z,9.23
2018-05-25T03:22:05.427Z,9.00
2018-05-25T03:25:07.471Z,9.73
2018-05-25T03:28:10.572Z,8.57
2018-05-25T03:31:12.772Z,9.10
2018-05-25T03:34:14.807Z,9.10
2018-05-25T03:37:16.842Z,8.90
2018-05-25T03:40:18.947Z,9.77
2018-05-25T03:43:20.908Z,8.63
2018-05-25T03:46:23.063Z,9.00
2018-05-25T03:49:25.141Z,10.63
2018-05-25T03:52:27.210Z,9.50
2018-05-25T03:55:29.292Z,9.60
2018-05-25T03:58:40.386Z,8.07
2018-05-25T04:01:58.534Z,9.20
2018-05-25T04:05:05.082Z,11.07
2018-05-25T04:08:07.183Z,10.27
2018-05-25T04:11:09.311Z,9.50
2018-05-25T04:14:11.403Z,10.87
2018-05-25T04:17:19.308Z,10.57
2018-05-25T04:20:21.408Z,9.50
2018-05-25T04:23:23.535Z,9.40
2018-05-25T04:26:25.556Z,8.60
2018-05-25T04:29:27.674Z,10.87
2018-05-25T04:32:29.720Z,8.30
2018-05-25T04:35:31.851Z,9.20
2018-05-25T04:38:33.986Z,9.10
2018-05-25T04:41:36.003Z,9.37
2018-05-25T04:44:38.013Z,10.57
2018-05-25T04:47:40.121Z,11.23
2018-05-25T04:50:42.094Z,9.47
2018-05-25T04:53:44.928Z,10.23
2018-05-25T04:56:47.017Z,10.47
2018-05-25T04:59:50.121Z,9.30
2018-05-25T05:02:52.312Z,10.77
2018-05-25T05:05:54.439Z,11.73
2018-05-25T05:08:56.425Z,10.70
2018-05-25T05:11:58.516Z,10.43
2018-05-25T05:15:00.565Z,10.13
2018-05-25T05:18:03.679Z,11.67
2018-05-25T05:21:06.842Z,10.70
2018-05-25T05:24:08.919Z,12.13
2018-05-25T05:27:11.085Z,11.53
2018-05-25T05:30:13.288Z,10.17
2018-05-25T05:33:16.552Z,10.60
2018-05-25T05:36:18.719Z,10.50
2018-05-25T05:39:20.811Z,10.80
2018-05-25T05:42:22.980Z,10.90
2018-05-25T05:45:25.064Z,10.93
2018-05-25T05:48:27.136Z,12.20
2018-05-25T05:51:29.281Z,14.67
2018-05-25T05:54:33.425Z,12.40
2018-05-25T05:57:35.459Z,12.37
2018-05-25T06:00:37.604Z,11.23
2018-05-25T06:03:39.676Z,13.73
2018-05-25T06:06:41.740Z,13.00
2018-05-25T06:09:43.913Z,15.80
2018-05-25T06:12:46.000Z,13.40
2018-05-25T06:15:48.096Z,12.40
2018-05-25T06:18:50.272Z,11.77
2018-05-25T06:21:52.407Z,13.17
2018-05-25T06:24:54.479Z,13.67
2018-05-25T06:27:56.724Z,12.03
2018-05-25T06:30:58.904Z,11.27
2018-05-25T06:34:01.024Z,11.77
2018-05-25T06:37:07.860Z,12.97
2018-05-25T06:40:09.944Z,12.70
2018-05-25T06:43:12.190Z,10.23
2018-05-25T06:46:14.399Z,12.30
2018-05-25T06:49:17.404Z,16.47
2018-05-25T06:52:19.497Z,11.90
2018-05-25T06:55:21.560Z,10.73
2018-05-25T06:58:23.634Z,10.17
2018-05-25T07:01:25.817Z,9.77
2018-05-25T07:04:28.019Z,11.37
2018-05-25T07:07:30.083Z,8.83
2018-05-25T07:10:32.236Z,10.60
2018-05-25T07:13:34.367Z,10.57
2018-05-25T07:16:36.569Z,11.17
2018-05-25T07:19:38.604Z,11.67
2018-05-25T07:22:40.973Z,9.73
2018-05-25T07:25:43.040Z,13.37
2018-05-25T07:28:48.602Z,15.17
2018-05-25T07:31:50.817Z,11.43
2018-05-25T07:34:52.984Z,10.90
2018-05-25T07:37:55.162Z,12.60
2018-05-25T07:40:57.320Z,10.30
2018-05-25T07:43:59.357Z,10.63
2018-05-25T07:47:01.609Z,12.03
2018-05-25T07:50:03.749Z,11.67
2018-05-25T07:53:05.881Z,12.30
2018-05-25T07:56:08.061Z,13.43
2018-05-25T07:59:10.078Z,10.07
2018-05-25T08:02:12.288Z,11.23
2018-05-25T08:05:14.388Z,11.80
2018-05-25T08:08:17.480Z,11.50
2018-05-25T08:11:19.516Z,11.17
2018-05-25T08:14:21.598Z,11.53
2018-05-25T08:17:23.661Z,12.73
2018-05-25T08:20:25.873Z,11.20
2018-05-25T08:23:28.036Z,18.73
2018-05-25T08:26:30.451Z,13.40
2018-05-25T08:29:32.699Z,11.27
2018-05-25T08:32:34.886Z,12.27
2018-05-25T08:35:37.120Z,11.53
2018-05-25T08:38:39.312Z,10.77
2018-05-25T08:41:42.360Z,11.63
2018-05-25T08:44:44.525Z,10.67
2018-05-25T08:47:49.041Z,17.07
2018-05-25T08:50:51.132Z,10.40
2018-05-25T08:53:53.283Z,11.80
2018-05-25T08:56:55.378Z,14.43
2018-05-25T08:59:57.480Z,11.67
2018-05-25T09:02:59.591Z,12.27
2018-05-25T09:06:01.956Z,13.73
2018-05-25T09:09:04.908Z,10.30
2018-05-25T09:12:07.003Z,11.90
2018-05-25T09:15:09.051Z,14.43
2018-05-25T09:18:11.194Z,13.33
2018-05-25T09:21:13.325Z,11.83
2018-05-25T09:24:15.359Z,10.53
2018-05-25T09:27:18.271Z,9.60
2018-05-25T09:30:20.272Z,11.23
2018-05-25T09:33:22.262Z,10.07
2018-05-25T09:36:24.351Z,9.47
2018-05-25T09:39:26.414Z,9.70
2018-05-25T09:42:28.486Z,18.00
2018-05-25T09:45:30.451Z,8.43
2018-05-25T09:48:32.523Z,8.33
2018-05-25T09:51:34.627Z,8.57
2018-05-25T09:54:36.737Z,9.20
2018-05-25T09:57:42.050Z,8.63
2018-05-25T10:00:44.118Z,9.53
2018-05-25T10:03:47.579Z,8.33
2018-05-25T10:06:49.660Z,9.27
2018-05-25T10:09:51.734Z,10.37
2018-05-25T10:12:54.813Z,9.60
2018-05-25T10:15:57.914Z,14.13
2018-05-25T10:19:00.028Z,13.40
2018-05-25T10:22:02.169Z,9.10
2018-05-25T10:25:04.338Z,8.73
2018-05-25T10:28:06.364Z,10.40
2018-05-25T10:31:08.467Z,10.37
2018-05-25T10:34:10.622Z,19.40
2018-05-25T10:37:12.785Z,20.33
2018-05-25T10:40:14.969Z,23.30
2018-05-25T10:43:18.075Z,26.17
2018-05-25T10:46:20.143Z,20.90
2018-05-25T10:49:22.103Z,18.37
2018-05-25T10:52:24.155Z,19.60
2018-05-25T10:55:26.388Z,20.67
2018-05-25T10:58:28.519Z,21.03
2018-05-25T11:01:30.570Z,18.07
2018-05-25T11:04:32.740Z,19.33
2018-05-25T11:07:34.812Z,13.90
2018-05-25T11:10:36.870Z,11.83
2018-05-25T11:13:39.001Z,17.43
2018-05-25T11:16:41.340Z,24.90
2018-05-25T11:19:43.553Z,22.37
2018-05-25T11:22:45.810Z,24.67
2018-05-25T11:25:48.567Z,19.20
2018-05-25T11:28:50.791Z,23.83
2018-05-25T11:31:52.881Z,22.23
2018-05-25T11:34:55.040Z,20.10
2018-05-25T11:37:57.292Z,20.60
2018-05-25T11:40:59.563Z,18.67
2018-05-25T11:44:01.698Z,17.03
2018-05-25T11:47:03.784Z,21.83
2018-05-25T11:50:05.816Z,16.57
2018-05-25T11:53:07.910Z,17.73
2018-05-25T11:56:10.039Z,14.10
2018-05-25T11:59:13.129Z,13.33
2018-05-25T12:02:15.176Z,14.50
2018-05-25T12:05:18.227Z,13.37
2018-05-25T12:08:20.287Z,15.20
2018-05-25T12:11:22.393Z,15.30
2018-05-25T12:14:24.546Z,15.03
2018-05-25T12:17:26.684Z,14.37
2018-05-25T12:20:28.744Z,10.20
2018-05-25T12:23:30.910Z,13.43
2018-05-25T12:26:33.110Z,12.63
2018-05-25T12:29:35.234Z,12.00
2018-05-25T12:32:37.383Z,10.57
2018-05-25T12:35:39.385Z,11.43
2018-05-25T12:38:41.720Z,9.80
2018-05-25T12:41:43.854Z,8.67
2018-05-25T12:44:55.117Z,8.57
2018-05-25T12:47:57.242Z,12.77
2018-05-25T12:50:59.215Z,11.57
2018-05-25T12:54:01.257Z,12.57
2018-05-25T12:57:04.334Z,12.20
2018-05-25T13:00:06.435Z,12.13
2018-05-25T13:03:08.479Z,12.87
2018-05-25T13:06:10.658Z,15.07
2018-05-25T13:09:12.718Z,13.43
2018-05-25T13:12:15.096Z,12.63
2018-05-25T13:15:17.173Z,12.20
2018-05-25T13:18:19.384Z,10.43
2018-05-25T13:21:21.315Z,9.10
2018-05-25T13:24:23.486Z,8.03
2018-05-25T13:27:26.363Z,9.80
2018-05-25T13:30:29.099Z,9.40
2018-05-25T13:33:31.273Z,9.53
2018-05-25T13:36:33.811Z,8.20
2018-05-25T13:39:35.879Z,8.17
2018-05-25T13:42:37.999Z,9.57
2018-05-25T13:45:40.098Z,7.93
2018-05-25T13:48:43.154Z,8.60
2018-05-25T13:51:45.273Z,8.80
2018-05-25T13:54:47.388Z,9.47
2018-05-25T13:57:49.417Z,7.20
2018-05-25T14:00:51.527Z,7.33
2018-05-25T14:03:53.549Z,7.73
2018-05-25T14:06:56.689Z,6.20
2018-05-25T14:09:58.639Z,6.10
2018-05-25T14:13:01.799Z,6.37
2018-05-25T14:16:04.464Z,6.63
2018-05-25T14:19:06.535Z,5.50
2018-05-25T14:22:09.044Z,6.00
2018-05-25T14:25:11.207Z,6.57
2018-05-25T14:28:13.270Z,5.93
2018-05-25T14:31:15.431Z,8.43
2018-05-25T14:34:17.509Z,5.00
2018-05-25T14:37:19.698Z,7.43
2018-05-25T14:40:21.860Z,4.57
2018-05-25T14:43:23.905Z,5.10
2018-05-25T14:46:26.095Z,4.40
2018-05-25T14:49:28.253Z,5.27
2018-05-25T14:52:30.312Z,5.17
2018-05-25T14:55:32.283Z,6.20
2018-05-25T14:58:34.964Z,7.43
2018-05-25T15:01:37.047Z,5.23
2018-05-25T15:04:39.079Z,4.77
2018-05-25T15:07:41.190Z,5.63
2018-05-25T15:10:43.260Z,5.07
2018-05-25T15:13:45.337Z,5.43
2018-05-25T15:16:47.491Z,4.67
2018-05-25T15:19:49.560Z,5.23
2018-05-25T15:22:51.803Z,5.03
2018-05-25T15:25:53.906Z,4.83
2018-05-25T15:28:56.096Z,5.03
2018-05-25T15:31:58.102Z,4.60
2018-05-25T15:35:00.111Z,5.13
2018-05-25T15:38:02.193Z,4.63
2018-05-25T15:41:05.378Z,5.20
2018-05-25T15:44:07.408Z,4.17
2018-05-25T15:47:10.636Z,3.53
2018-05-25T15:50:12.819Z,3.50
2018-05-25T15:53:14.887Z,3.70
2018-05-25T15:56:16.999Z,5.77
2018-05-25T15:59:19.120Z,4.63
2018-05-25T16:02:21.229Z,3.50
2018-05-25T16:05:23.268Z,3.30
2018-05-25T16:08:25.427Z,3.30
2018-05-25T16:11:27.468Z,3.20
2018-05-25T16:14:29.558Z,4.60
2018-05-25T16:17:31.601Z,3.63
2018-05-25T16:20:33.709Z,5.00
2018-05-25T16:23:36.423Z,2.80
2018-05-25T16:26:38.452Z,3.87
2018-05-25T16:29:40.523Z,5.30
2018-05-25T16:32:42.640Z,6.13
2018-05-25T16:35:44.700Z,3.60
2018-05-25T16:38:46.859Z,3.17
2018-05-25T16:41:49.056Z,2.90
2018-05-25T16:44:51.144Z,2.70
2018-05-25T16:47:53.228Z,2.70
2018-05-25T16:50:55.346Z,3.13
2018-05-25T16:53:58.463Z,2.77
2018-05-25T16:57:00.548Z,2.50
2018-05-25T17:00:02.691Z,2.50
2018-05-25T17:03:05.542Z,4.17
2018-05-25T17:06:07.688Z,3.07
2018-05-25T17:09:09.716Z,2.80
2018-05-25T17:12:11.840Z,5.47
2018-05-25T17:15:13.887Z,3.73
2018-05-25T17:18:15.988Z,3.00
2018-05-25T17:21:18.133Z,2.70
2018-05-25T17:24:20.213Z,3.47
2018-05-25T17:27:22.317Z,4.37
2018-05-25T17:30:24.352Z,3.47
2018-05-25T17:33:26.367Z,4.80
2018-05-25T17:36:28.496Z,3.17
2018-05-25T17:39:30.523Z,2.97
2018-05-25T17:42:32.775Z,3.43
2018-05-25T17:45:35.583Z,2.67
2018-05-25T17:48:37.570Z,3.73
2018-05-25T17:51:39.636Z,2.87
2018-05-25T17:54:41.716Z,2.90
2018-05-25T17:57:43.892Z,4.13
2018-05-25T18:00:45.956Z,2.63
2018-05-25T18:03:48.023Z,3.10
2018-05-25T18:06:50.099Z,3.50
2018-05-25T18:09:52.141Z,2.93
2018-05-25T18:12:54.255Z,2.70
2018-05-25T18:15:56.410Z,3.27
2018-05-25T18:18:59.483Z,3.47
2018-05-25T18:22:01.584Z,3.50
2018-05-25T18:25:03.760Z,5.37
2018-05-25T18:28:05.788Z,5.50
2018-05-25T18:31:07.892Z,3.87
2018-05-25T18:34:09.924Z,4.07
2018-05-25T18:37:12.009Z,3.73
2018-05-25T18:40:14.069Z,5.17
2018-05-25T18:43:16.148Z,5.10
2018-05-25T18:46:18.089Z,6.93
2018-05-25T18:49:20.766Z,4.87
2018-05-25T18:52:22.855Z,3.97
2018-05-25T18:55:25.042Z,4.17
2018-05-25T18:58:27.111Z,3.50
2018-05-25T19:01:30.042Z,5.23
2018-05-25T19:04:33.256Z,4.20
2018-05-25T19:07:35.864Z,5.17
2018-05-25T19:10:38.973Z,4.27
2018-05-25T19:13:41.143Z,4.13
2018-05-25T19:16:43.212Z,4.20
2018-05-25T19:19:46.315Z,6.77
2018-05-25T19:22:48.388Z,5.70
2018-05-25T19:25:51.493Z,5.97
2018-05-25T19:28:53.511Z,6.33
2018-05-25T19:31:55.600Z,5.90
2018-05-25T19:34:57.669Z,7.03
2018-05-25T19:38:00.746Z,5.50
2018-05-25T19:41:02.916Z,7.73
2018-05-25T19:44:05.082Z,5.83
2018-05-25T19:47:07.041Z,5.37
2018-05-25T19:50:09.115Z,6.07
2018-05-25T19:53:12.228Z,4.53
2018-05-25T19:56:14.416Z,5.87
2018-05-25T19:59:16.446Z,5.13
2018-05-25T20:02:18.515Z,5.17
2018-05-25T20:05:20.658Z,5.03
2018-05-25T20:08:22.914Z,6.83
2018-05-25T20:11:24.961Z,5.70
2018-05-25T20:14:27.149Z,5.03
2018-05-25T20:17:30.601Z,5.57
2018-05-25T20:20:32.700Z,5.10
2018-05-25T20:23:34.657Z,5.37
2018-05-25T20:26:36.713Z,6.47
2018-05-25T20:29:38.955Z,5.20
2018-05-25T20:32:42.118Z,5.07
2018-05-25T20:35:44.131Z,5.97
2018-05-25T20:38:46.214Z,9.83
2018-05-25T20:41:48.264Z,5.60
2018-05-25T20:44:50.329Z,5.33
2018-05-25T20:47:52.319Z,5.33
2018-05-25T20:50:54.377Z,5.23
2018-05-25T20:53:56.479Z,4.80
2018-05-25T20:56:58.513Z,5.37
2018-05-25T21:00:01.180Z,5.67
2018-05-25T21:03:03.244Z,5.73
2018-05-25T21:06:05.784Z,5.50
2018-05-25T21:09:07.919Z,5.73
2018-05-25T21:12:10.001Z,6.37
2018-05-25T21:15:12.047Z,9.17
2018-05-25T21:18:14.108Z,5.93
2018-05-25T21:21:16.218Z,7.30
2018-05-25T21:24:21.544Z,6.37
2018-05-25T21:27:23.614Z,6.67
2018-05-25T21:30:25.677Z,6.57
2018-05-25T21:33:27.968Z,9.90
2018-05-25T21:36:29.912Z,7.97
2018-05-25T21:39:32.499Z,6.80
2018-05-25T21:42:34.586Z,6.97
2018-05-25T21:45:36.671Z,7.00
2018-05-25T21:48:38.707Z,7.77
2018-05-25T21:51:40.742Z,5.70
2018-05-25T21:54:42.775Z,6.37
2018-05-25T21:57:44.991Z,7.07
2018-05-25T22:00:47.706Z,5.70
2018-05-25T22:03:49.779Z,5.50
2018-05-25T22:06:51.959Z,6.60
2018-05-25T22:09:53.984Z,7.47
2018-05-25T22:12:56.060Z,7.57
2018-05-25T22:15:58.332Z,7.47
2018-05-25T22:19:01.636Z,6.30
2018-05-25T22:22:03.696Z,5.67
2018-05-25T22:25:05.778Z,5.50
2018-05-25T22:28:08.365Z,5.27
2018-05-25T22:31:10.408Z,5.93
2018-05-25T22:34:12.518Z,6.27
2018-05-25T22:37:14.552Z,6.20
2018-05-25T22:40:16.545Z,7.50
2018-05-25T22:43:30.319Z,5.53
2018-05-25T22:46:43.947Z,9.53
2018-05-25T22:49:57.483Z,7.47
2018-05-25T22:53:03.192Z,6.77
2018-05-25T22:56:05.132Z,5.63
2018-05-25T22:59:07.323Z,6.03
2018-05-25T23:02:09.402Z,6.80
2018-05-25T23:05:12.397Z,5.80
2018-05-25T23:08:14.471Z,6.03
2018-05-25T23:11:16.538Z,5.30
2018-05-25T23:14:18.608Z,5.30
2018-05-25T23:17:20.698Z,5.03
2018-05-25T23:20:22.715Z,5.13
2018-05-25T23:23:24.730Z,9.20
2018-05-25T23:26:27.856Z,6.20
2018-05-25T23:29:30.920Z,6.43
2018-05-25T23:32:32.949Z,5.67
2018-05-25T23:35:35.019Z,6.03
2018-05-25T23:38:37.112Z,7.10
2018-05-25T23:41:40.095Z,6.10
2018-05-25T23:44:42.159Z,5.57
2018-05-25T23:47:44.218Z,5.37
2018-05-25T23:50:46.328Z,6.97
2018-05-25T23:53:48.463Z,5.57
2018-05-25T23:56:50.517Z,8.63
2018-05-25T23:59:52.592Z,8.87
